createdAt,value
2018-10-17T00:00:37.901Z,14.60
2018-10-17T00:03:08.454Z,17.50
2018-10-17T00:05:39.029Z,16.73
2018-10-17T00:08:09.629Z,18.43
2018-10-17T00:10:40.205Z,15.60
2018-10-17T00:13:10.832Z,14.80
2018-10-17T00:15:41.401Z,15.50
2018-10-17T00:18:11.959Z,14.83
2018-10-17T00:20:42.533Z,16.83
2018-10-17T00:23:13.104Z,15.90
2018-10-17T00:25:43.719Z,17.57
2018-10-17T00:28:14.294Z,16.70
2018-10-17T00:30:44.853Z,17.30
2018-10-17T00:33:15.425Z,15.90
2018-10-17T00:35:45.974Z,14.70
2018-10-17T00:38:16.587Z,15.03
2018-10-17T00:40:47.169Z,17.03
2018-10-17T00:43:17.864Z,16.80
2018-10-17T00:45:48.339Z,15.03
2018-10-17T00:48:18.890Z,16.80
2018-10-17T00:50:49.446Z,16.23
2018-10-17T00:53:20.016Z,15.87
2018-10-17T00:55:50.544Z,15.47
2018-10-17T00:58:21.133Z,18.03
2018-10-17T01:00:51.716Z,16.30
2018-10-17T01:03:22.233Z,14.97
2018-10-17T01:05:52.794Z,24.67
2018-10-17T01:08:23.419Z,16.70
2018-10-17T01:10:54.074Z,16.80
2018-10-17T01:13:24.675Z,15.40
2018-10-17T01:15:55.265Z,17.40
2018-10-17T01:18:25.867Z,16.70
2018-10-17T01:20:56.447Z,17.23
2018-10-17T01:23:26.993Z,14.90
2018-10-17T01:25:57.581Z,16.63
2018-10-17T01:28:28.177Z,15.40
2018-10-17T01:30:58.806Z,15.53
2018-10-17T01:33:29.370Z,15.37
2018-10-17T01:35:59.896Z,15.83
2018-10-17T01:38:30.458Z,14.63
2018-10-17T01:41:01.101Z,17.33
2018-10-17T01:43:31.652Z,14.97
2018-10-17T01:46:02.249Z,14.70
2018-10-17T01:48:32.782Z,15.87
2018-10-17T01:51:03.323Z,15.73
2018-10-17T01:53:33.855Z,15.30
2018-10-17T01:56:04.453Z,15.90
2018-10-17T01:58:34.966Z,15.50
2018-10-17T02:01:05.625Z,15.80
2018-10-17T02:03:36.166Z,17.53
2018-10-17T02:06:08.245Z,16.70
2018-10-17T02:08:38.805Z,15.30
2018-10-17T02:11:09.430Z,14.60
2018-10-17T02:13:39.926Z,16.17
2018-10-17T02:16:10.491Z,15.53
2018-10-17T02:18:41.076Z,15.00
2018-10-17T02:21:11.602Z,15.10
2018-10-17T02:23:42.148Z,17.33
2018-10-17T02:26:12.692Z,14.80
2018-10-17T02:28:43.236Z,14.77
2018-10-17T02:31:13.818Z,15.43
2018-10-17T02:33:44.362Z,16.10
2018-10-17T02:36:14.958Z,15.53
2018-10-17T02:38:45.514Z,13.47
2018-10-17T02:41:16.204Z,15.43
2018-10-17T02:43:46.720Z,15.03
2018-10-17T02:46:17.247Z,13.50
2018-10-17T02:48:47.861Z,15.87
2018-10-17T02:51:18.394Z,14.00
2018-10-17T02:53:48.972Z,15.40
2018-10-17T02:56:19.593Z,15.70
2018-10-17T02:58:50.099Z,15.27
2018-10-17T03:01:20.659Z,14.70
2018-10-17T03:03:51.177Z,15.87
2018-10-17T03:06:28.451Z,14.73
2018-10-17T03:08:58.978Z,13.07
2018-10-17T03:11:29.547Z,15.00
2018-10-17T03:14:00.086Z,15.67
2018-10-17T03:16:30.681Z,14.00
2018-10-17T03:19:01.308Z,14.50
2018-10-17T03:21:31.804Z,15.67
2018-10-17T03:24:02.401Z,20.40
2018-10-17T03:26:32.984Z,14.83
2018-10-17T03:29:03.623Z,14.33
2018-10-17T03:31:34.249Z,14.07
2018-10-17T03:34:04.699Z,15.17
2018-10-17T03:36:35.374Z,14.90
2018-10-17T03:39:09.116Z,15.70
2018-10-17T03:41:40.047Z,14.40
2018-10-17T03:44:10.657Z,15.40
2018-10-17T03:46:41.277Z,15.03
2018-10-17T03:49:11.885Z,16.50
2018-10-17T03:51:42.354Z,14.13
2018-10-17T03:54:12.914Z,15.00
2018-10-17T03:56:43.473Z,14.70
2018-10-17T03:59:14.172Z,16.83
2018-10-17T04:01:44.642Z,15.40
2018-10-17T04:04:15.146Z,15.80
2018-10-17T04:06:45.743Z,15.07
2018-10-17T04:09:16.321Z,14.77
2018-10-17T04:11:46.858Z,16.33
2018-10-17T04:14:17.429Z,14.13
2018-10-17T04:16:48.000Z,15.13
2018-10-17T04:19:18.644Z,16.57
2018-10-17T04:21:49.118Z,15.10
2018-10-17T04:24:19.723Z,17.90
2018-10-17T04:26:50.346Z,17.07
2018-10-17T04:29:20.910Z,18.47
2018-10-17T04:31:51.454Z,17.50
2018-10-17T04:34:22.033Z,17.67
2018-10-17T04:36:52.612Z,18.23
2018-10-17T04:39:23.146Z,27.80
2018-10-17T04:41:53.717Z,23.63
2018-10-17T04:44:24.275Z,28.60
2018-10-17T04:46:54.877Z,23.53
2018-10-17T04:49:25.446Z,25.27
2018-10-17T04:51:55.961Z,21.93
2018-10-17T04:54:26.503Z,27.23
2018-10-17T04:56:57.189Z,22.90
2018-10-17T04:59:27.791Z,14.90
2018-10-17T05:01:58.382Z,17.20
2018-10-17T05:04:28.973Z,16.90
2018-10-17T05:06:59.625Z,17.73
2018-10-17T05:09:30.110Z,17.97
2018-10-17T05:12:00.691Z,17.00
2018-10-17T05:14:31.241Z,16.30
2018-10-17T05:17:01.832Z,17.00
2018-10-17T05:19:32.380Z,15.63
2018-10-17T05:22:02.938Z,16.00
2018-10-17T05:24:33.494Z,19.50
2018-10-17T05:27:04.097Z,17.07
2018-10-17T05:29:34.675Z,19.30
2018-10-17T05:32:05.581Z,18.80
2018-10-17T05:34:36.075Z,16.60
2018-10-17T05:37:06.741Z,17.33
2018-10-17T05:39:37.253Z,21.57
2018-10-17T05:42:07.846Z,18.77
2018-10-17T05:44:38.440Z,15.47
2018-10-17T05:47:09.412Z,16.40
2018-10-17T05:49:39.974Z,17.77
2018-10-17T05:52:10.617Z,16.40
2018-10-17T05:54:41.315Z,16.37
2018-10-17T05:57:11.882Z,15.37
2018-10-17T05:59:42.439Z,17.17
2018-10-17T06:02:18.882Z,21.00
2018-10-17T06:04:49.382Z,18.50
2018-10-17T06:07:20.057Z,21.77
2018-10-17T06:09:50.599Z,19.50
2018-10-17T06:12:21.164Z,19.87
2018-10-17T06:14:51.733Z,18.43
2018-10-17T06:17:22.353Z,17.10
2018-10-17T06:19:52.869Z,19.57
2018-10-17T06:22:23.494Z,24.17
2018-10-17T06:24:54.037Z,23.33
2018-10-17T06:27:24.648Z,16.77
2018-10-17T06:29:55.186Z,17.40
2018-10-17T06:32:25.775Z,17.43
2018-10-17T06:34:56.306Z,19.67
2018-10-17T06:37:26.895Z,18.13
2018-10-17T06:39:57.436Z,16.53
2018-10-17T06:42:28.002Z,16.23
2018-10-17T06:44:58.588Z,16.20
2018-10-17T06:47:29.216Z,15.60
2018-10-17T06:49:59.786Z,21.17
2018-10-17T06:52:30.372Z,17.70
2018-10-17T06:55:01.039Z,16.70
2018-10-17T06:57:31.552Z,18.10
2018-10-17T07:00:02.093Z,16.00
2018-10-17T07:02:32.666Z,27.70
2018-10-17T07:05:03.222Z,16.80
2018-10-17T07:07:33.834Z,17.07
2018-10-17T07:10:04.403Z,17.80
2018-10-17T07:12:35.046Z,17.40
2018-10-17T07:15:06.628Z,18.30
2018-10-17T07:17:37.395Z,17.03
2018-10-17T07:20:09.332Z,24.43
2018-10-17T07:22:39.994Z,16.93
2018-10-17T07:25:10.632Z,17.80
2018-10-17T07:27:41.155Z,19.17
2018-10-17T07:30:11.922Z,18.23
2018-10-17T07:32:42.496Z,20.00
2018-10-17T07:35:13.073Z,19.53
2018-10-17T07:37:43.631Z,19.13
2018-10-17T07:40:14.224Z,20.47
2018-10-17T07:42:44.742Z,20.07
2018-10-17T07:45:15.351Z,18.87
2018-10-17T07:47:46.049Z,19.03
2018-10-17T07:50:16.615Z,19.77
2018-10-17T07:52:47.170Z,17.93
2018-10-17T07:55:17.774Z,19.50
2018-10-17T07:57:48.342Z,17.83
2018-10-17T08:00:19.028Z,17.67
2018-10-17T08:02:49.624Z,17.37
2018-10-17T08:05:20.224Z,17.67
2018-10-17T08:07:50.872Z,23.10
2018-10-17T08:10:21.442Z,17.63
2018-10-17T08:12:52.050Z,19.03
2018-10-17T08:15:22.637Z,16.23
2018-10-17T08:17:53.214Z,16.57
2018-10-17T08:20:23.770Z,15.90
2018-10-17T08:22:54.395Z,15.07
2018-10-17T08:25:24.991Z,15.53
2018-10-17T08:27:55.718Z,15.50
2018-10-17T08:30:26.317Z,18.10
2018-10-17T08:32:56.907Z,15.40
2018-10-17T08:35:27.602Z,15.40
2018-10-17T08:37:58.069Z,15.50
2018-10-17T08:40:28.658Z,15.20
2018-10-17T08:42:59.155Z,16.70
2018-10-17T08:45:29.706Z,15.40
2018-10-17T08:48:00.252Z,15.90
2018-10-17T08:50:30.957Z,15.00
2018-10-17T08:53:01.410Z,14.00
2018-10-17T08:55:31.966Z,18.77
2018-10-17T08:58:02.591Z,13.97
2018-10-17T09:00:33.050Z,14.73
2018-10-17T09:03:03.619Z,16.13
2018-10-17T09:05:34.110Z,20.83
2018-10-17T09:08:04.772Z,14.20
2018-10-17T09:10:35.278Z,13.03
2018-10-17T09:13:05.913Z,13.03
2018-10-17T09:15:38.382Z,15.00
2018-10-17T09:18:07.166Z,14.93
2018-10-17T09:20:37.922Z,14.67
2018-10-17T09:23:08.199Z,13.83
2018-10-17T09:25:38.791Z,14.33
2018-10-17T09:28:09.282Z,15.30
2018-10-17T09:30:39.818Z,14.13
2018-10-17T09:33:10.350Z,15.07
2018-10-17T09:35:40.920Z,14.77
2018-10-17T09:38:11.478Z,14.47
2018-10-17T09:40:42.117Z,13.73
2018-10-17T09:43:12.722Z,17.17
2018-10-17T09:45:43.174Z,15.90
2018-10-17T09:48:13.997Z,16.33
2018-10-17T09:50:44.483Z,14.33
2018-10-17T09:53:15.172Z,16.67
2018-10-17T09:55:45.674Z,14.30
2018-10-17T09:58:16.379Z,15.37
2018-10-17T10:00:51.843Z,15.93
2018-10-17T10:03:22.389Z,14.57
2018-10-17T10:05:52.982Z,14.17
2018-10-17T10:08:23.561Z,15.70
2018-10-17T10:10:54.191Z,13.27
2018-10-17T10:13:24.747Z,16.47
2018-10-17T10:15:55.376Z,13.40
2018-10-17T10:18:25.914Z,13.70
2018-10-17T10:20:56.481Z,17.60
2018-10-17T10:23:27.112Z,12.63
2018-10-17T10:25:57.669Z,13.87
2018-10-17T10:28:28.330Z,13.10
2018-10-17T10:30:58.814Z,12.67
2018-10-17T10:33:29.340Z,12.90
2018-10-17T10:35:59.988Z,13.13
2018-10-17T10:38:30.506Z,12.23
2018-10-17T10:41:01.072Z,13.73
2018-10-17T10:43:31.602Z,15.20
2018-10-17T10:46:02.169Z,12.70
2018-10-17T10:48:32.709Z,24.00
2018-10-17T10:51:03.328Z,14.50
2018-10-17T10:53:33.908Z,12.57
2018-10-17T10:56:04.778Z,11.90
2018-10-17T10:58:35.529Z,16.70
2018-10-17T11:01:06.005Z,12.23
2018-10-17T11:03:36.641Z,13.00
2018-10-17T11:06:07.288Z,10.57
2018-10-17T11:08:37.857Z,11.97
2018-10-17T11:11:08.427Z,11.80
2018-10-17T11:13:38.970Z,16.43
2018-10-17T11:16:09.611Z,11.00
2018-10-17T11:18:40.135Z,11.03
2018-10-17T11:21:10.813Z,11.57
2018-10-17T11:23:41.412Z,11.80
2018-10-17T11:26:12.018Z,12.03
2018-10-17T11:28:42.595Z,11.17
2018-10-17T11:31:13.613Z,10.83
2018-10-17T11:33:44.145Z,42.60
2018-10-17T11:36:14.788Z,29.30
2018-10-17T11:38:45.437Z,11.97
2018-10-17T11:41:16.200Z,11.47
2018-10-17T11:43:46.801Z,11.23
2018-10-17T11:46:17.380Z,11.97
2018-10-17T11:48:47.978Z,11.53
2018-10-17T11:51:18.601Z,10.83
2018-10-17T11:53:49.185Z,11.33
2018-10-17T11:56:19.720Z,11.63
2018-10-17T11:58:50.328Z,13.10
2018-10-17T12:01:20.951Z,11.67
2018-10-17T12:03:51.808Z,12.40
2018-10-17T12:06:22.245Z,11.60
2018-10-17T12:08:52.842Z,12.37
2018-10-17T12:11:23.430Z,11.33
2018-10-17T12:13:53.994Z,15.80
2018-10-17T12:16:24.585Z,12.20
2018-10-17T12:18:55.176Z,12.67
2018-10-17T12:21:26.463Z,14.60
2018-10-17T12:23:57.115Z,11.60
2018-10-17T12:26:27.699Z,11.83
2018-10-17T12:28:58.310Z,17.90
2018-10-17T12:31:28.866Z,12.27
2018-10-17T12:33:59.431Z,11.30
2018-10-17T12:36:30.033Z,10.90
2018-10-17T12:39:00.654Z,12.10
2018-10-17T12:41:31.247Z,11.43
2018-10-17T12:44:01.790Z,12.90
2018-10-17T12:46:32.349Z,11.70
2018-10-17T12:49:02.992Z,11.60
2018-10-17T12:51:33.789Z,11.63
2018-10-17T12:54:04.347Z,11.97
2018-10-17T12:56:34.877Z,11.03
2018-10-17T12:59:05.632Z,10.30
2018-10-17T13:01:36.167Z,10.50
2018-10-17T13:04:06.974Z,11.90
2018-10-17T13:06:37.545Z,11.13
2018-10-17T13:09:11.450Z,11.43
2018-10-17T13:11:42.030Z,11.40
2018-10-17T13:14:13.553Z,15.17
2018-10-17T13:16:44.104Z,10.70
2018-10-17T13:19:14.724Z,11.53
2018-10-17T13:21:45.206Z,11.13
2018-10-17T13:24:15.748Z,12.50
2018-10-17T13:26:46.359Z,11.73
2018-10-17T13:29:16.985Z,11.60
2018-10-17T13:31:47.488Z,11.13
2018-10-17T13:34:18.111Z,11.43
2018-10-17T13:36:48.616Z,11.70
2018-10-17T13:39:19.201Z,12.70
2018-10-17T13:41:49.764Z,12.90
2018-10-17T13:44:20.278Z,14.03
2018-10-17T13:46:50.833Z,13.03
2018-10-17T13:49:21.712Z,14.20
2018-10-17T13:51:51.974Z,13.03
2018-10-17T13:54:22.487Z,13.33
2018-10-17T13:56:53.093Z,11.83
2018-10-17T13:59:23.701Z,11.40
2018-10-17T14:01:55.102Z,12.67
2018-10-17T14:04:25.589Z,12.23
2018-10-17T14:06:56.231Z,11.40
2018-10-17T14:09:26.766Z,11.80
2018-10-17T14:11:57.302Z,11.83
2018-10-17T14:14:27.855Z,12.70
2018-10-17T14:16:58.393Z,12.40
2018-10-17T14:19:28.968Z,12.07
2018-10-17T14:21:59.475Z,10.27
2018-10-17T14:24:30.124Z,15.03
2018-10-17T14:27:00.671Z,11.70
2018-10-17T14:29:31.200Z,12.47
2018-10-17T14:32:01.753Z,11.63
2018-10-17T14:34:32.305Z,13.20
2018-10-17T14:37:02.927Z,12.37
2018-10-17T14:39:33.573Z,12.00
2018-10-17T14:42:04.146Z,13.63
2018-10-17T14:44:34.691Z,14.10
2018-10-17T14:47:05.316Z,12.83
2018-10-17T14:49:35.897Z,15.43
2018-10-17T14:52:06.780Z,15.70
2018-10-17T14:54:37.329Z,19.23
2018-10-17T14:57:07.951Z,13.97
2018-10-17T14:59:38.483Z,16.03
2018-10-17T15:02:09.058Z,14.27
2018-10-17T15:04:39.800Z,18.10
2018-10-17T15:07:10.352Z,17.53
2018-10-17T15:09:41.170Z,19.07
2018-10-17T15:12:11.797Z,15.53
2018-10-17T15:14:42.259Z,19.97
2018-10-17T15:17:12.952Z,89.80
2018-10-17T15:19:43.453Z,103.03
2018-10-17T15:22:14.101Z,47.23
2018-10-17T15:24:44.748Z,42.20
2018-10-17T15:27:15.682Z,42.63
2018-10-17T15:29:46.227Z,44.77
2018-10-17T15:32:16.739Z,131.03
2018-10-17T15:34:47.273Z,59.43
2018-10-17T15:37:17.794Z,29.23
2018-10-17T15:39:48.376Z,25.73
2018-10-17T15:42:19.175Z,23.33
2018-10-17T15:44:49.918Z,32.40
2018-10-17T15:47:20.454Z,34.13
2018-10-17T15:49:51.053Z,27.07
2018-10-17T15:52:21.574Z,23.03
2018-10-17T15:54:52.114Z,22.83
2018-10-17T15:57:22.888Z,23.30
2018-10-17T15:59:53.463Z,24.03
2018-10-17T16:02:24.100Z,23.90
2018-10-17T16:04:54.538Z,28.30
2018-10-17T16:07:25.173Z,24.90
2018-10-17T16:09:55.715Z,67.90
2018-10-17T16:12:26.449Z,72.03
2018-10-17T16:14:57.013Z,46.37
2018-10-17T16:17:27.526Z,33.10
2018-10-17T16:19:58.161Z,23.20
2018-10-17T16:22:28.797Z,21.57
2018-10-17T16:24:59.413Z,22.17
2018-10-17T16:27:29.976Z,27.30
2018-10-17T16:30:00.708Z,26.70
2018-10-17T16:32:31.305Z,29.63
2018-10-17T16:35:01.879Z,29.67
2018-10-17T16:37:32.490Z,26.13
2018-10-17T16:40:03.085Z,27.53
2018-10-17T16:42:33.657Z,25.10
2018-10-17T16:45:04.268Z,24.13
2018-10-17T16:47:34.930Z,26.80
2018-10-17T16:50:06.171Z,32.73
2018-10-17T16:52:37.073Z,25.63
2018-10-17T16:55:08.996Z,39.53
2018-10-17T16:57:39.614Z,33.90
2018-10-17T17:00:11.766Z,26.20
2018-10-17T17:02:42.335Z,29.17
2018-10-17T17:05:15.014Z,25.30
2018-10-17T17:07:45.744Z,25.47
2018-10-17T17:10:16.383Z,24.80
2018-10-17T17:12:46.983Z,27.03
2018-10-17T17:15:17.743Z,37.10
2018-10-17T17:17:48.315Z,28.07
2018-10-17T17:20:18.966Z,26.43
2018-10-17T17:22:49.735Z,22.03
2018-10-17T17:25:20.332Z,24.10
2018-10-17T17:27:50.952Z,24.50
2018-10-17T17:30:21.769Z,24.40
2018-10-17T17:32:52.496Z,21.87
2018-10-17T17:35:23.172Z,19.40
2018-10-17T17:37:53.859Z,18.50
2018-10-17T17:40:24.525Z,22.60
2018-10-17T17:42:55.195Z,60.67
2018-10-17T17:45:25.817Z,39.47
2018-10-17T17:47:57.344Z,24.60
2018-10-17T17:50:28.034Z,18.67
2018-10-17T17:52:58.678Z,21.43
2018-10-17T17:55:29.338Z,19.23
2018-10-17T17:58:00.035Z,19.13
2018-10-17T18:00:30.718Z,19.07
2018-10-17T18:03:01.453Z,20.83
2018-10-17T18:05:32.406Z,20.50
2018-10-17T18:08:03.269Z,20.47
2018-10-17T18:10:34.058Z,71.40
2018-10-17T18:13:04.891Z,97.83
2018-10-17T18:15:35.589Z,37.23
2018-10-17T18:18:06.384Z,24.00
2018-10-17T18:20:37.083Z,24.77
2018-10-17T18:23:07.875Z,23.60
2018-10-17T18:25:38.628Z,23.73
2018-10-17T18:28:09.552Z,23.33
2018-10-17T18:30:40.179Z,36.57
2018-10-17T18:33:10.901Z,65.97
2018-10-17T18:35:41.723Z,37.60
2018-10-17T18:38:12.500Z,28.63
2018-10-17T18:40:44.502Z,24.13
2018-10-17T18:43:15.396Z,24.57
2018-10-17T18:45:46.124Z,24.33
2018-10-17T18:48:17.043Z,23.40
2018-10-17T18:50:47.738Z,25.03
2018-10-17T18:53:19.460Z,24.03
2018-10-17T18:55:50.499Z,24.13
2018-10-17T18:58:21.657Z,24.97
2018-10-17T19:00:52.393Z,23.73
2018-10-17T19:03:23.135Z,23.73
2018-10-17T19:05:53.837Z,22.60
2018-10-17T19:08:24.565Z,22.93
2018-10-17T19:10:55.312Z,21.97
2018-10-17T19:13:26.045Z,23.60
2018-10-17T19:15:56.880Z,21.50
2018-10-17T19:18:27.659Z,19.70
2018-10-17T19:20:58.519Z,21.43
2018-10-17T19:23:29.291Z,20.93
2018-10-17T19:26:00.025Z,22.57
2018-10-17T19:28:30.835Z,20.90
2018-10-17T19:31:01.538Z,24.07
2018-10-17T19:33:32.289Z,24.30
2018-10-17T19:36:03.500Z,20.90
2018-10-17T19:38:34.170Z,25.07
2018-10-17T19:41:04.923Z,19.90
2018-10-17T19:43:36.553Z,20.00
2018-10-17T19:46:07.382Z,20.47
2018-10-17T19:48:38.072Z,60.10
2018-10-17T19:51:08.777Z,39.33
2018-10-17T19:53:39.526Z,24.87
2018-10-17T19:56:10.207Z,21.43
2018-10-17T19:58:40.917Z,21.20
2018-10-17T20:01:11.596Z,20.50
2018-10-17T20:03:42.275Z,21.00
2018-10-17T20:06:12.949Z,22.97
2018-10-17T20:08:43.942Z,25.83
2018-10-17T20:11:14.574Z,20.97
2018-10-17T20:13:45.232Z,21.33
2018-10-17T20:16:15.891Z,20.40
2018-10-17T20:18:46.496Z,21.00
2018-10-17T20:21:17.141Z,21.37
2018-10-17T20:23:47.684Z,20.03
2018-10-17T20:26:18.257Z,21.17
2018-10-17T20:28:48.928Z,20.87
2018-10-17T20:31:19.510Z,21.07
2018-10-17T20:33:50.109Z,20.33
2018-10-17T20:36:20.657Z,24.97
2018-10-17T20:38:51.269Z,20.90
2018-10-17T20:41:21.784Z,21.03
2018-10-17T20:43:52.354Z,19.20
2018-10-17T20:46:22.913Z,19.80
2018-10-17T20:48:53.449Z,24.00
2018-10-17T20:51:23.973Z,19.30
2018-10-17T20:53:54.548Z,20.07
2018-10-17T20:56:25.102Z,19.73
2018-10-17T20:58:55.607Z,20.27
2018-10-17T21:01:26.171Z,20.87
2018-10-17T21:03:56.693Z,20.80
2018-10-17T21:06:27.225Z,19.63
2018-10-17T21:08:57.785Z,21.97
2018-10-17T21:11:28.371Z,21.83
2018-10-17T21:13:58.911Z,21.37
2018-10-17T21:16:29.411Z,22.70
2018-10-17T21:18:59.946Z,25.37
2018-10-17T21:21:30.520Z,22.37
2018-10-17T21:24:01.080Z,26.87
2018-10-17T21:26:31.589Z,26.13
2018-10-17T21:29:02.178Z,27.47
2018-10-17T21:31:32.713Z,26.10
2018-10-17T21:34:03.283Z,29.80
2018-10-17T21:36:34.022Z,29.40
2018-10-17T21:39:07.105Z,28.27
2018-10-17T21:41:37.707Z,26.90
2018-10-17T21:44:09.473Z,25.20
2018-10-17T21:46:40.544Z,29.00
2018-10-17T21:49:11.295Z,20.60
2018-10-17T21:51:42.090Z,22.63
2018-10-17T21:54:12.735Z,20.47
2018-10-17T21:56:43.241Z,21.63
2018-10-17T21:59:13.771Z,22.23
2018-10-17T22:01:44.292Z,26.10
2018-10-17T22:04:14.846Z,23.27
2018-10-17T22:06:45.378Z,20.87
2018-10-17T22:09:15.937Z,21.90
2018-10-17T22:11:46.502Z,22.40
2018-10-17T22:14:17.172Z,20.83
2018-10-17T22:16:52.843Z,21.33
2018-10-17T22:19:23.633Z,21.90
2018-10-17T22:21:54.019Z,21.73
2018-10-17T22:24:24.565Z,21.10
2018-10-17T22:26:55.393Z,25.00
2018-10-17T22:29:25.986Z,22.53
2018-10-17T22:31:56.561Z,22.77
2018-10-17T22:34:27.118Z,24.80
2018-10-17T22:36:57.650Z,23.00
2018-10-17T22:39:28.209Z,22.60
2018-10-17T22:41:58.769Z,21.70
2018-10-17T22:44:29.311Z,20.83
2018-10-17T22:46:59.887Z,20.60
2018-10-17T22:49:30.488Z,21.57
2018-10-17T22:52:01.374Z,22.50
2018-10-17T22:54:31.907Z,21.57
2018-10-17T22:57:02.482Z,22.53
2018-10-17T22:59:33.017Z,21.53
2018-10-17T23:02:03.670Z,21.97
2018-10-17T23:04:34.195Z,25.43
2018-10-17T23:07:04.896Z,23.80
2018-10-17T23:09:35.522Z,21.90
2018-10-17T23:12:06.517Z,22.70
2018-10-17T23:14:37.092Z,21.30
2018-10-17T23:17:07.666Z,20.87
2018-10-17T23:19:38.218Z,23.23
2018-10-17T23:22:08.726Z,23.07
2018-10-17T23:24:39.280Z,20.80
2018-10-17T23:27:09.934Z,19.53
2018-10-17T23:29:40.506Z,21.57
2018-10-17T23:32:11.588Z,18.50
2018-10-17T23:34:42.152Z,20.80
2018-10-17T23:37:12.669Z,21.70
2018-10-17T23:39:43.265Z,19.40
2018-10-17T23:42:13.868Z,20.00
2018-10-17T23:44:44.390Z,22.33
2018-10-17T23:47:14.952Z,21.53
2018-10-17T23:49:45.541Z,22.93
2018-10-17T23:52:16.416Z,20.17
2018-10-17T23:54:46.954Z,23.17
2018-10-17T23:57:17.517Z,19.93
2018-10-17T23:59:48.068Z,20.87
